createdAt,value
2023-03-20T00:00:24.664Z,100174.91
2023-03-20T00:01:56.726Z,100169.28
2023-03-20T00:03:28.472Z,100174.66
2023-03-20T00:05:00.355Z,100178.19
2023-03-20T00:06:32.566Z,100168.44
2023-03-20T00:08:04.885Z,100176.41
2023-03-20T00:09:36.680Z,100175.41
2023-03-20T00:11:27.208Z,100181.88
2023-03-20T00:13:00.336Z,100170.78
2023-03-20T00:14:34.330Z,100174.31
2023-03-20T00:16:06.824Z,100173.31
2023-03-20T00:17:38.841Z,100179.44
2023-03-20T00:19:18.386Z,100178.59
2023-03-20T00:20:51.418Z,100173.06
2023-03-20T00:22:23.137Z,100177.47
2023-03-20T00:23:55.689Z,100177.47
2023-03-20T00:25:28.476Z,100173.94
2023-03-20T00:27:00.242Z,100166.84
2023-03-20T00:28:35.024Z,100172.22
2023-03-20T00:30:19.105Z,100176.88
2023-03-20T00:31:51.209Z,100176.88
2023-03-20T00:33:22.983Z,100171.72
2023-03-20T00:34:54.672Z,100180.03
2023-03-20T00:36:28.059Z,100172.22
2023-03-20T00:37:59.791Z,100174.28
2023-03-20T00:39:31.762Z,100168.06
2023-03-20T00:41:12.948Z,100170.16
2023-03-20T00:42:47.909Z,100171.19
2023-03-20T00:44:34.499Z,100176.13
2023-03-20T00:46:12.185Z,100170.59
2023-03-20T00:47:44.473Z,100172.44
2023-03-20T00:49:16.236Z,100172.56
2023-03-20T00:50:49.605Z,100178.06
2023-03-20T00:52:22.289Z,100174.50
2023-03-20T00:53:56.752Z,100170.97
2023-03-20T00:55:29.754Z,100174.63
2023-03-20T00:57:06.636Z,100168.38
2023-03-20T00:58:38.920Z,100171.94
2023-03-20T01:00:26.207Z,100166.78
2023-03-20T01:01:59.211Z,100169.22
2023-03-20T01:03:32.248Z,100168.28
2023-03-20T01:05:05.733Z,100164.75
2023-03-20T01:06:37.635Z,100167.44
2023-03-20T01:08:13.556Z,100166.44
2023-03-20T01:09:45.594Z,100170.97
2023-03-20T01:11:23.400Z,100160.22
2023-03-20T01:12:58.325Z,100164.59
2023-03-20T01:14:30.357Z,100165.44
2023-03-20T01:16:02.600Z,100162.75
2023-03-20T01:17:34.361Z,100168.88
2023-03-20T01:19:06.522Z,100166.19
2023-03-20T01:20:39.324Z,100163.50
2023-03-20T01:22:11.281Z,100160.81
2023-03-20T01:23:43.160Z,100174.13
2023-03-20T01:25:16.277Z,100169.75
2023-03-20T01:26:49.332Z,100167.06
2023-03-20T01:28:23.911Z,100167.19
2023-03-20T01:29:55.723Z,100167.06
2023-03-20T01:31:27.499Z,100173.28
2023-03-20T01:33:01.761Z,100165.22
2023-03-20T01:34:34.972Z,100162.41
2023-03-20T01:36:09.851Z,100165.09
2023-03-20T01:37:42.323Z,100165.09
2023-03-20T01:39:15.897Z,100168.50
2023-03-20T01:40:59.331Z,100163.38
2023-03-20T01:42:33.532Z,100167.66
2023-03-20T01:44:23.894Z,100163.25
2023-03-20T01:46:14.378Z,100166.81
2023-03-20T01:47:47.982Z,100156.03
2023-03-20T01:49:21.855Z,100167.56
2023-03-20T01:50:55.835Z,100156.91
2023-03-20T01:52:30.407Z,100160.56
2023-03-20T01:54:17.412Z,100165.22
2023-03-20T01:56:08.604Z,100161.66
2023-03-20T01:57:47.852Z,100152.75
2023-03-20T01:59:35.427Z,100162.66
2023-03-20T02:01:11.792Z,100163.63
2023-03-20T02:02:46.418Z,100153.84
2023-03-20T02:04:35.013Z,100153.00
2023-03-20T02:06:14.710Z,100161.81
2023-03-20T02:08:29.481Z,100164.75
2023-03-20T02:10:08.489Z,100163.00
2023-03-20T02:11:48.588Z,100164.84
2023-03-20T02:13:25.503Z,100166.78
2023-03-20T02:14:58.735Z,100161.41
2023-03-20T02:16:52.825Z,100174.84
2023-03-20T02:18:42.236Z,100158.84
2023-03-20T02:20:23.702Z,100168.88
2023-03-20T02:22:27.050Z,100170.84
2023-03-20T02:24:16.914Z,100166.31
2023-03-20T02:26:25.455Z,100160.31
2023-03-20T02:28:20.149Z,100160.19
2023-03-20T02:30:26.288Z,100154.31
2023-03-20T02:32:31.733Z,100162.41
2023-03-20T02:34:34.401Z,100167.03
2023-03-20T02:36:41.027Z,100168.13
2023-03-20T02:38:37.448Z,100168.13
2023-03-20T02:40:17.446Z,100169.97
2023-03-20T02:42:14.387Z,100170.31
2023-03-20T02:44:01.236Z,100165.81
2023-03-20T02:45:48.431Z,100171.19
2023-03-20T02:47:29.737Z,100175.69
2023-03-20T02:49:08.618Z,100168.59
2023-03-20T02:50:56.154Z,100163.22
2023-03-20T02:52:46.363Z,100166.88
2023-03-20T02:54:39.163Z,100173.13
2023-03-20T02:56:18.556Z,100173.88
2023-03-20T02:58:04.781Z,100168.50
2023-03-20T03:00:16.558Z,100159.44
2023-03-20T03:01:55.758Z,100167.25
2023-03-20T03:03:34.396Z,100168.13
2023-03-20T03:05:15.140Z,100164.56
2023-03-20T03:06:50.572Z,100167.88
2023-03-20T03:08:28.657Z,100165.31
2023-03-20T03:10:11.169Z,100162.50
2023-03-20T03:11:53.032Z,100162.41
2023-03-20T03:13:31.413Z,100158.72
2023-03-20T03:15:08.159Z,100159.47
2023-03-20T03:16:41.587Z,100157.50
2023-03-20T03:18:19.152Z,100152.13
2023-03-20T03:19:55.204Z,100152.88
2023-03-20T03:21:30.527Z,100150.03
2023-03-20T03:23:02.888Z,100158.00
2023-03-20T03:24:43.115Z,100151.78
2023-03-20T03:26:44.371Z,100157.16
2023-03-20T03:28:26.426Z,100157.63
2023-03-20T03:30:11.841Z,100157.38
2023-03-20T03:31:45.745Z,100155.44
2023-03-20T03:33:32.247Z,100153.59
2023-03-20T03:35:06.514Z,100151.66
2023-03-20T03:36:47.466Z,100158.00
2023-03-20T03:38:28.247Z,100160.44
2023-03-20T03:40:19.844Z,100157.75
2023-03-20T03:42:07.622Z,100161.22
2023-03-20T03:43:47.427Z,100168.06
2023-03-20T03:45:24.891Z,100163.53
2023-03-20T03:47:11.648Z,100168.06
2023-03-20T03:48:50.845Z,100158.03
2023-03-20T03:50:33.434Z,100161.69
2023-03-20T03:52:18.146Z,100163.53
2023-03-20T03:53:55.861Z,100158.03
2023-03-20T03:55:34.977Z,100152.53
2023-03-20T03:57:12.475Z,100156.19
2023-03-20T03:58:48.689Z,100163.44
2023-03-20T04:00:25.146Z,100162.69
2023-03-20T04:01:58.707Z,100158.16
2023-03-20T04:03:38.081Z,100153.88
2023-03-20T04:05:11.385Z,100159.25
2023-03-20T04:06:43.485Z,100153.16
2023-03-20T04:08:16.473Z,100161.28
2023-03-20T04:09:48.246Z,100157.88
2023-03-20T04:11:22.984Z,100166.06
2023-03-20T04:12:54.700Z,100165.34
2023-03-20T04:14:27.374Z,100166.19
2023-03-20T04:15:59.341Z,100160.22
2023-03-20T04:17:32.651Z,100166.53
2023-03-20T04:19:04.351Z,100165.94
2023-03-20T04:20:36.434Z,100171.44
2023-03-20T04:22:10.520Z,100171.69
2023-03-20T04:23:42.488Z,100177.31
2023-03-20T04:25:23.205Z,100169.63
2023-03-20T04:26:58.007Z,100173.41
2023-03-20T04:28:30.072Z,100171.91
2023-03-20T04:30:19.581Z,100169.47
2023-03-20T04:32:10.740Z,100172.41
2023-03-20T04:34:01.102Z,100165.53
2023-03-20T04:35:52.209Z,100162.22
2023-03-20T04:37:24.525Z,100168.81
2023-03-20T04:39:06.175Z,100173.69
2023-03-20T04:40:39.023Z,100167.69
2023-03-20T04:42:11.046Z,100173.28
2023-03-20T04:43:42.846Z,100175.50
2023-03-20T04:45:14.654Z,100174.03
2023-03-20T04:46:47.154Z,100169.84
2023-03-20T04:48:21.549Z,100182.66
2023-03-20T04:49:53.378Z,100179.56
2023-03-20T04:51:25.354Z,100176.25
2023-03-20T04:52:58.414Z,100184.69
2023-03-20T04:54:30.450Z,100180.63
2023-03-20T04:56:02.364Z,100194.28
2023-03-20T04:57:36.437Z,100183.75
2023-03-20T04:59:09.496Z,100186.81
2023-03-20T05:00:41.286Z,100187.97
2023-03-20T05:02:18.154Z,100190.78
2023-03-20T05:03:49.959Z,100196.25
2023-03-20T05:05:22.591Z,100194.56
2023-03-20T05:06:54.958Z,100197.38
2023-03-20T05:08:29.649Z,100204.56
2023-03-20T05:10:06.048Z,100199.19
2023-03-20T05:11:45.801Z,100200.91
2023-03-20T05:13:37.465Z,100203.38
2023-03-20T05:15:25.770Z,100214.00
2023-03-20T05:17:29.643Z,100208.53
2023-03-20T05:19:20.026Z,100208.38
2023-03-20T05:21:02.944Z,100223.44
2023-03-20T05:22:57.129Z,100226.00
2023-03-20T05:24:52.938Z,100225.75
2023-03-20T05:26:57.284Z,100223.84
2023-03-20T05:28:46.026Z,100223.59
2023-03-20T05:30:25.469Z,100229.72
2023-03-20T05:32:26.341Z,100224.09
2023-03-20T05:34:14.986Z,100218.50
2023-03-20T05:35:53.192Z,100230.84
2023-03-20T05:37:36.138Z,100227.94
2023-03-20T05:39:17.279Z,100234.06
2023-03-20T05:41:12.173Z,100230.94
2023-03-20T05:42:52.815Z,100228.09
2023-03-20T05:44:35.520Z,100233.25
2023-03-20T05:46:26.697Z,100239.38
2023-03-20T05:48:07.325Z,100237.31
2023-03-20T05:49:44.669Z,100241.47
2023-03-20T05:51:29.631Z,100240.41
2023-03-20T05:53:27.230Z,100242.72
2023-03-20T05:55:20.336Z,100250.56
2023-03-20T05:56:59.269Z,100247.63
2023-03-20T05:58:42.353Z,100251.94
2023-03-20T06:00:32.735Z,100248.16
2023-03-20T06:02:27.374Z,100249.63
2023-03-20T06:04:08.904Z,100242.09
2023-03-20T06:06:07.689Z,100241.81
2023-03-20T06:07:40.084Z,100248.69
2023-03-20T06:09:16.337Z,100248.47
2023-03-20T06:10:50.740Z,100252.63
2023-03-20T06:12:22.799Z,100248.72
2023-03-20T06:13:55.840Z,100247.63
2023-03-20T06:15:31.505Z,100250.84
2023-03-20T06:17:14.034Z,100247.75
2023-03-20T06:18:46.706Z,100252.72
2023-03-20T06:20:18.673Z,100254.16
2023-03-20T06:21:51.040Z,100258.22
2023-03-20T06:23:26.201Z,100261.41
2023-03-20T06:24:58.324Z,100258.34
2023-03-20T06:26:36.867Z,100261.53
2023-03-20T06:28:13.295Z,100264.72
2023-03-20T06:29:45.353Z,100264.25
2023-03-20T06:31:21.611Z,100274.53
2023-03-20T06:32:53.774Z,100267.78
2023-03-20T06:34:27.771Z,100262.88
2023-03-20T06:35:59.580Z,100271.34
2023-03-20T06:37:34.253Z,100271.69
2023-03-20T06:39:11.741Z,100266.66
2023-03-20T06:40:44.250Z,100276.84
2023-03-20T06:42:17.769Z,100269.97
2023-03-20T06:43:51.219Z,100272.03
2023-03-20T06:45:23.911Z,100273.22
2023-03-20T06:47:02.270Z,100275.06
2023-03-20T06:48:36.506Z,100270.75
2023-03-20T06:50:11.620Z,100270.00
2023-03-20T06:51:43.343Z,100266.78
2023-03-20T06:53:15.590Z,100274.13
2023-03-20T06:54:52.224Z,100267.97
2023-03-20T06:56:24.794Z,100264.44
2023-03-20T06:57:57.204Z,100262.81
2023-03-20T06:59:29.101Z,100264.59
2023-03-20T07:01:02.524Z,100260.53
2023-03-20T07:02:35.164Z,100258.72
2023-03-20T07:04:07.707Z,100258.78
2023-03-20T07:05:46.576Z,100259.69
2023-03-20T07:07:19.032Z,100253.53
2023-03-20T07:08:52.891Z,100257.84
2023-03-20T07:10:24.696Z,100257.06
2023-03-20T07:11:58.474Z,100259.53
2023-03-20T07:13:31.516Z,100253.16
2023-03-20T07:15:09.654Z,100258.03
2023-03-20T07:16:42.318Z,100254.91
2023-03-20T07:18:14.065Z,100261.94
2023-03-20T07:19:46.602Z,100256.84
2023-03-20T07:21:21.849Z,100262.84
2023-03-20T07:22:53.776Z,100259.84
2023-03-20T07:24:32.142Z,100264.97
2023-03-20T07:26:05.581Z,100262.13
2023-03-20T07:27:38.225Z,100259.25
2023-03-20T07:29:10.022Z,100266.63
2023-03-20T07:30:42.638Z,100264.91
2023-03-20T07:32:15.470Z,100274.31
2023-03-20T07:33:53.236Z,100273.00
2023-03-20T07:35:25.007Z,100273.88
2023-03-20T07:36:56.793Z,100283.75
2023-03-20T07:38:28.578Z,100278.59
2023-03-20T07:40:11.220Z,100276.00
2023-03-20T07:42:00.941Z,100281.88
2023-03-20T07:43:48.972Z,100286.19
2023-03-20T07:45:29.460Z,100283.19
2023-03-20T07:47:01.284Z,100284.75
2023-03-20T07:48:33.004Z,100287.19
2023-03-20T07:50:07.752Z,100288.63
2023-03-20T07:51:40.403Z,100284.94
2023-03-20T07:53:12.406Z,100296.16
2023-03-20T07:54:44.119Z,100289.63
2023-03-20T07:56:15.947Z,100291.19
2023-03-20T07:57:51.193Z,100286.34
2023-03-20T07:59:23.139Z,100294.31
2023-03-20T08:00:57.770Z,100303.69
2023-03-20T08:02:30.601Z,100298.09
2023-03-20T08:04:02.503Z,100297.81
2023-03-20T08:05:34.488Z,100304.63
2023-03-20T08:07:06.809Z,100295.38
2023-03-20T08:08:38.718Z,100297.88
2023-03-20T08:10:11.023Z,100295.88
2023-03-20T08:11:42.718Z,100294.44
2023-03-20T08:13:14.486Z,100298.56
2023-03-20T08:14:46.379Z,100299.81
2023-03-20T08:16:18.165Z,100298.09
2023-03-20T08:17:49.931Z,100300.09
2023-03-20T08:19:21.801Z,100293.84
2023-03-20T08:20:53.496Z,100299.94
2023-03-20T08:22:25.235Z,100297.13
2023-03-20T08:23:57.157Z,100288.75
2023-03-20T08:25:33.633Z,100293.16
2023-03-20T08:27:05.855Z,100286.19
2023-03-20T08:28:46.984Z,100276.81
2023-03-20T08:30:19.632Z,100289.38
2023-03-20T08:31:51.475Z,100284.97
2023-03-20T08:33:23.181Z,100280.56
2023-03-20T08:34:55.823Z,100285.91
2023-03-20T08:36:27.749Z,100281.34
2023-03-20T08:37:59.594Z,100281.22
2023-03-20T08:39:33.273Z,100278.38
2023-03-20T08:41:06.434Z,100285.19
2023-03-20T08:42:38.440Z,100276.78
2023-03-20T08:44:10.247Z,100280.03
2023-03-20T08:45:41.927Z,100284.31
2023-03-20T08:47:14.003Z,100284.88
2023-03-20T08:48:45.825Z,100285.81
2023-03-20T08:50:17.974Z,100295.09
2023-03-20T08:51:49.708Z,100287.91
2023-03-20T08:53:22.268Z,100296.28
2023-03-20T08:54:54.034Z,100295.69
2023-03-20T08:56:25.949Z,100303.25
2023-03-20T08:57:57.857Z,100301.94
2023-03-20T08:59:29.769Z,100301.63
2023-03-20T09:01:09.333Z,100305.22
2023-03-20T09:02:42.947Z,100303.06
2023-03-20T09:04:14.738Z,100304.06
2023-03-20T09:05:48.706Z,100302.78
2023-03-20T09:07:22.075Z,100301.75
2023-03-20T09:08:55.554Z,100298.75
2023-03-20T09:10:27.337Z,100301.16
2023-03-20T09:11:59.437Z,100296.97
2023-03-20T09:13:31.498Z,100299.06
2023-03-20T09:15:05.135Z,100300.78
2023-03-20T09:16:36.893Z,100295.28
2023-03-20T09:18:08.640Z,100293.38
2023-03-20T09:19:44.164Z,100298.56
2023-03-20T09:21:15.984Z,100292.75
2023-03-20T09:22:47.733Z,100291.50
2023-03-20T09:24:19.448Z,100294.97
2023-03-20T09:25:51.499Z,100294.44
2023-03-20T09:27:23.196Z,100299.63
2023-03-20T09:28:54.884Z,100296.13
2023-03-20T09:30:26.563Z,100291.78
2023-03-20T09:31:58.854Z,100308.13
2023-03-20T09:33:30.794Z,100311.53
2023-03-20T09:35:02.968Z,100308.13
2023-03-20T09:36:34.841Z,100315.44
2023-03-20T09:38:06.924Z,100312.31
2023-03-20T09:39:39.003Z,100321.09
2023-03-20T09:41:21.878Z,100317.50
2023-03-20T09:43:05.522Z,100322.38
2023-03-20T09:44:56.104Z,100325.84
2023-03-20T09:47:02.673Z,100331.75
2023-03-20T09:48:58.632Z,100324.78
2023-03-20T09:50:43.816Z,100328.66
2023-03-20T09:52:22.092Z,100333.41
2023-03-20T09:53:59.889Z,100334.38
2023-03-20T09:55:39.948Z,100336.44
2023-03-20T09:57:22.716Z,100331.13
2023-03-20T09:58:56.986Z,100334.88
2023-03-20T10:00:32.648Z,100330.59
2023-03-20T10:02:24.367Z,100321.78
2023-03-20T10:04:00.657Z,100333.72
2023-03-20T10:05:39.081Z,100334.25
2023-03-20T10:07:15.646Z,100331.59
2023-03-20T10:08:47.630Z,100329.13
2023-03-20T10:10:24.526Z,100328.03
2023-03-20T10:12:25.877Z,100326.53
2023-03-20T10:14:38.348Z,100334.59
2023-03-20T10:16:36.181Z,100329.22
2023-03-20T10:18:16.048Z,100330.47
2023-03-20T10:20:14.653Z,100326.03
2023-03-20T10:21:49.642Z,100335.59
2023-03-20T10:23:40.241Z,100330.09
2023-03-20T10:25:24.033Z,100342.44
2023-03-20T10:27:01.347Z,100332.06
2023-03-20T10:29:01.137Z,100347.22
2023-03-20T10:30:49.480Z,100341.03
2023-03-20T10:32:29.909Z,100337.97
2023-03-20T10:34:16.669Z,100337.81
2023-03-20T10:36:15.760Z,100336.34
2023-03-20T10:38:19.563Z,100337.03
2023-03-20T10:40:20.891Z,100328.41
2023-03-20T10:42:01.004Z,100341.56
2023-03-20T10:43:39.758Z,100337.44
2023-03-20T10:45:18.161Z,100348.31
2023-03-20T10:46:53.763Z,100341.63
2023-03-20T10:48:36.841Z,100341.25
2023-03-20T10:50:17.672Z,100343.84
2023-03-20T10:51:56.713Z,100338.03
2023-03-20T10:53:34.745Z,100331.47
2023-03-20T10:55:23.177Z,100336.94
2023-03-20T10:56:59.038Z,100331.66
2023-03-20T10:58:36.904Z,100339.53
2023-03-20T11:00:17.736Z,100341.25
2023-03-20T11:01:49.570Z,100341.84
2023-03-20T11:03:24.814Z,100345.31
2023-03-20T11:04:56.893Z,100344.19
2023-03-20T11:06:34.614Z,100346.63
2023-03-20T11:08:13.211Z,100338.31
2023-03-20T11:09:44.969Z,100340.75
2023-03-20T11:11:28.666Z,100342.47
2023-03-20T11:13:16.926Z,100345.03
2023-03-20T11:14:48.754Z,100338.78
2023-03-20T11:16:36.798Z,100340.19
2023-03-20T11:19:27.117Z,100342.91
2023-03-20T11:21:02.211Z,100337.75
2023-03-20T11:22:34.339Z,100342.75
2023-03-20T11:24:22.232Z,100339.06
2023-03-20T11:26:07.184Z,100342.03
2023-03-20T11:27:41.754Z,100335.78
2023-03-20T11:29:35.295Z,100330.50
2023-03-20T11:31:13.770Z,100331.63
2023-03-20T11:32:49.243Z,100327.38
2023-03-20T11:34:27.882Z,100331.22
2023-03-20T11:36:00.004Z,100331.34
2023-03-20T11:37:35.366Z,100326.09
2023-03-20T11:39:14.554Z,100336.47
2023-03-20T11:40:52.534Z,100327.66
2023-03-20T11:42:27.257Z,100324.66
2023-03-20T11:43:59.257Z,100319.81
2023-03-20T11:45:39.940Z,100323.06
2023-03-20T11:47:25.219Z,100326.78
2023-03-20T11:49:19.053Z,100316.50
2023-03-20T11:51:04.837Z,100315.63
2023-03-20T11:52:40.082Z,100316.25
2023-03-20T11:54:17.521Z,100313.66
2023-03-20T11:56:23.812Z,100308.81
2023-03-20T11:58:04.958Z,100303.09
2023-03-20T11:59:37.468Z,100304.09
2023-03-20T12:01:12.453Z,100299.09
2023-03-20T12:02:45.036Z,100291.28
2023-03-20T12:04:33.445Z,100295.16
2023-03-20T12:06:18.270Z,100306.13
2023-03-20T12:07:53.166Z,100305.13
2023-03-20T12:09:38.489Z,100308.81
2023-03-20T12:11:30.017Z,100300.84
2023-03-20T12:13:06.650Z,100308.13
2023-03-20T12:14:46.122Z,100301.41
2023-03-20T12:16:21.581Z,100303.28
2023-03-20T12:18:05.865Z,100303.28
2023-03-20T12:19:40.602Z,100292.16
2023-03-20T12:21:25.932Z,100299.72
2023-03-20T12:23:11.707Z,100287.03
2023-03-20T12:24:49.473Z,100296.69
2023-03-20T12:26:21.174Z,100288.56
2023-03-20T12:28:01.315Z,100282.31
2023-03-20T12:30:04.370Z,100280.88
2023-03-20T12:31:43.902Z,100289.75
2023-03-20T12:33:22.994Z,100289.00
2023-03-20T12:35:24.501Z,100293.03
2023-03-20T12:36:59.339Z,100290.44
2023-03-20T12:38:33.122Z,100287.72
2023-03-20T12:40:05.678Z,100286.19
2023-03-20T12:41:51.054Z,100292.75
2023-03-20T12:43:27.345Z,100282.31
2023-03-20T12:45:13.989Z,100286.50
2023-03-20T12:47:17.446Z,100289.47
2023-03-20T12:48:55.588Z,100287.47
2023-03-20T12:50:35.074Z,100287.47
2023-03-20T12:52:45.968Z,100285.94
2023-03-20T12:54:23.751Z,100287.19
2023-03-20T12:56:16.677Z,100282.50
2023-03-20T12:58:01.529Z,100287.34
2023-03-20T12:59:45.457Z,100278.91
2023-03-20T13:01:40.293Z,100277.91
2023-03-20T13:03:30.540Z,100280.03
2023-03-20T13:05:33.395Z,100276.03
2023-03-20T13:07:17.677Z,100270.88
2023-03-20T13:09:07.366Z,100269.28
2023-03-20T13:11:01.507Z,100276.56
2023-03-20T13:12:39.721Z,100262.31
2023-03-20T13:14:27.542Z,100266.25
2023-03-20T13:16:13.365Z,100270.13
2023-03-20T13:17:56.413Z,100260.50
2023-03-20T13:19:44.554Z,100256.34
2023-03-20T13:21:37.426Z,100255.03
2023-03-20T13:23:38.765Z,100260.47
2023-03-20T13:25:43.686Z,100255.75
2023-03-20T13:27:41.140Z,100251.34
2023-03-20T13:29:29.359Z,100252.75
2023-03-20T13:31:17.358Z,100251.19
2023-03-20T13:33:07.528Z,100251.34
2023-03-20T13:35:09.491Z,100244.78
2023-03-20T13:37:22.253Z,100245.81
2023-03-20T13:39:04.862Z,100241.94
2023-03-20T13:40:41.548Z,100239.94
2023-03-20T13:42:18.755Z,100243.50
2023-03-20T13:43:57.451Z,100238.78
2023-03-20T13:45:39.146Z,100243.06
2023-03-20T13:47:18.631Z,100242.19
2023-03-20T13:48:53.128Z,100243.91
2023-03-20T13:50:39.227Z,100248.47
2023-03-20T13:52:19.841Z,100243.75
2023-03-20T13:54:11.060Z,100241.91
2023-03-20T13:56:00.087Z,100244.19
2023-03-20T13:58:07.138Z,100240.94
2023-03-20T13:59:53.856Z,100235.97
2023-03-20T14:01:47.431Z,100233.69
2023-03-20T14:03:35.949Z,100238.59
2023-03-20T14:05:20.368Z,100235.81
2023-03-20T14:06:57.095Z,100238.94
2023-03-20T14:08:30.471Z,100238.66
2023-03-20T14:10:22.743Z,100235.13
2023-03-20T14:11:56.889Z,100237.81
2023-03-20T14:13:30.812Z,100237.28
2023-03-20T14:15:04.032Z,100236.84
2023-03-20T14:16:35.845Z,100241.84
2023-03-20T14:18:18.674Z,100234.59
2023-03-20T14:19:51.774Z,100242.00
2023-03-20T14:21:24.105Z,100238.19
2023-03-20T14:22:57.701Z,100242.63
2023-03-20T14:24:29.777Z,100244.31
2023-03-20T14:26:06.072Z,100237.91
2023-03-20T14:27:53.879Z,100237.06
2023-03-20T14:29:38.622Z,100238.75
2023-03-20T14:31:30.640Z,100241.06
2023-03-20T14:33:05.467Z,100238.16
2023-03-20T14:34:48.657Z,100231.75
2023-03-20T14:36:26.433Z,100246.53
2023-03-20T14:38:19.836Z,100245.53
2023-03-20T14:40:00.055Z,100240.97
2023-03-20T14:41:50.459Z,100240.66
2023-03-20T14:43:41.663Z,100233.22
2023-03-20T14:45:13.313Z,100233.94
2023-03-20T14:47:05.076Z,100235.75
2023-03-20T14:48:47.009Z,100233.47
2023-03-20T14:50:27.141Z,100234.72
2023-03-20T14:52:11.054Z,100232.56
2023-03-20T14:53:42.796Z,100238.53
2023-03-20T14:55:17.449Z,100233.66
2023-03-20T14:56:50.755Z,100235.91
2023-03-20T14:58:35.847Z,100233.84
2023-03-20T15:00:19.850Z,100236.09
2023-03-20T15:02:02.052Z,100237.19
2023-03-20T15:03:34.521Z,100233.91
2023-03-20T15:05:07.316Z,100233.31
2023-03-20T15:06:49.913Z,100237.41
2023-03-20T15:08:25.758Z,100242.22
2023-03-20T15:10:00.809Z,100240.03
2023-03-20T15:11:34.378Z,100243.00
2023-03-20T15:13:08.099Z,100233.63
2023-03-20T15:14:45.731Z,100230.44
2023-03-20T15:16:25.284Z,100236.00
2023-03-20T15:18:04.401Z,100237.47
2023-03-20T15:19:39.744Z,100239.56
2023-03-20T15:21:21.399Z,100232.75
2023-03-20T15:22:57.894Z,100235.59
2023-03-20T15:24:30.290Z,100230.56
2023-03-20T15:26:02.097Z,100235.25
2023-03-20T15:27:34.257Z,100232.81
2023-03-20T15:29:16.727Z,100231.34
2023-03-20T15:30:50.573Z,100230.47
2023-03-20T15:32:24.011Z,100226.09
2023-03-20T15:33:57.872Z,100232.47
2023-03-20T15:35:29.985Z,100223.66
2023-03-20T15:37:03.564Z,100223.66
2023-03-20T15:38:36.541Z,100219.94
2023-03-20T15:40:14.890Z,100219.25
2023-03-20T15:41:51.971Z,100221.81
2023-03-20T15:43:25.939Z,100224.50
2023-03-20T15:44:57.905Z,100224.38
2023-03-20T15:46:29.618Z,100221.69
2023-03-20T15:48:01.253Z,100213.44
2023-03-20T15:49:33.417Z,100211.59
2023-03-20T15:51:06.139Z,100217.75
2023-03-20T15:52:52.832Z,100209.66
2023-03-20T15:54:25.295Z,100212.19
2023-03-20T15:56:17.248Z,100207.81
2023-03-20T15:57:54.089Z,100210.38
2023-03-20T15:59:30.208Z,100217.47
2023-03-20T16:01:05.193Z,100208.66
2023-03-20T16:02:37.520Z,100224.84
2023-03-20T16:04:14.141Z,100220.44
2023-03-20T16:05:50.089Z,100227.69
2023-03-20T16:07:33.191Z,100221.44
2023-03-20T16:09:08.370Z,100225.09
2023-03-20T16:10:43.230Z,100225.94
2023-03-20T16:12:17.576Z,100223.38
2023-03-20T16:13:51.583Z,100221.69
2023-03-20T16:15:27.702Z,100221.69
2023-03-20T16:17:01.468Z,100219.94
2023-03-20T16:18:38.295Z,100227.09
2023-03-20T16:20:17.379Z,100219.34
2023-03-20T16:22:01.837Z,100230.28
2023-03-20T16:23:41.055Z,100233.00
2023-03-20T16:25:15.958Z,100225.88
2023-03-20T16:26:51.355Z,100229.56
2023-03-20T16:28:26.136Z,100223.56
2023-03-20T16:29:58.633Z,100223.72
2023-03-20T16:31:34.264Z,100231.06
2023-03-20T16:33:13.460Z,100223.09
2023-03-20T16:34:50.536Z,100224.22
2023-03-20T16:36:29.883Z,100227.16
2023-03-20T16:38:02.833Z,100223.69
2023-03-20T16:39:34.599Z,100228.34
2023-03-20T16:41:30.636Z,100222.63
2023-03-20T16:43:12.460Z,100225.31
2023-03-20T16:44:44.244Z,100217.22
2023-03-20T16:46:24.321Z,100219.31
2023-03-20T16:48:11.488Z,100215.56
2023-03-20T16:50:04.570Z,100216.69
2023-03-20T16:51:36.542Z,100217.66
2023-03-20T16:53:14.145Z,100222.56
2023-03-20T16:54:45.986Z,100226.50
2023-03-20T16:56:26.208Z,100221.38
2023-03-20T16:58:06.038Z,100218.91
2023-03-20T16:59:41.319Z,100218.19
2023-03-20T17:01:21.536Z,100227.34
2023-03-20T17:03:22.779Z,100229.34
2023-03-20T17:04:56.891Z,100227.50
2023-03-20T17:06:36.005Z,100230.44
2023-03-20T17:08:13.338Z,100224.31
2023-03-20T17:09:55.740Z,100224.56
2023-03-20T17:11:31.188Z,100224.56
2023-03-20T17:13:02.895Z,100219.31
2023-03-20T17:14:34.641Z,100225.69
2023-03-20T17:16:06.944Z,100224.81
2023-03-20T17:17:38.999Z,100226.78
2023-03-20T17:19:16.576Z,100222.38
2023-03-20T17:20:48.290Z,100218.81
2023-03-20T17:22:23.277Z,100226.88
2023-03-20T17:23:55.551Z,100226.03
2023-03-20T17:25:27.272Z,100227.88
2023-03-20T17:26:59.156Z,100224.34
2023-03-20T17:28:37.156Z,100228.97
2023-03-20T17:30:18.723Z,100229.13
2023-03-20T17:31:50.553Z,100221.03
2023-03-20T17:33:22.706Z,100223.84
2023-03-20T17:34:54.428Z,100224.97
2023-03-20T17:36:29.127Z,100217.84
2023-03-20T17:38:00.917Z,100217.13
2023-03-20T17:39:33.033Z,100216.38
2023-03-20T17:41:04.876Z,100218.22
2023-03-20T17:42:39.366Z,100227.28
2023-03-20T17:44:11.065Z,100224.84
2023-03-20T17:45:44.397Z,100230.22
2023-03-20T17:47:20.896Z,100228.50
2023-03-20T17:49:00.732Z,100219.81
2023-03-20T17:50:32.428Z,100222.50
2023-03-20T17:52:04.968Z,100228.03
2023-03-20T17:53:36.686Z,100220.06
2023-03-20T17:55:09.231Z,100235.50
2023-03-20T17:56:42.288Z,100226.53
2023-03-20T17:58:21.157Z,100222.13
2023-03-20T17:59:52.885Z,100218.69
2023-03-20T18:01:25.597Z,100226.06
2023-03-20T18:02:57.323Z,100224.34
2023-03-20T18:04:29.480Z,100229.00
2023-03-20T18:06:01.863Z,100230.84
2023-03-20T18:07:33.885Z,100234.47
2023-03-20T18:09:05.989Z,100233.75
2023-03-20T18:10:38.607Z,100236.31
2023-03-20T18:12:15.881Z,100235.59
2023-03-20T18:13:47.988Z,100229.34
2023-03-20T18:15:19.688Z,100233.88
2023-03-20T18:16:51.739Z,100235.72
2023-03-20T18:18:24.162Z,100233.88
2023-03-20T18:19:56.025Z,100238.53
2023-03-20T18:21:27.785Z,100238.63
2023-03-20T18:22:59.495Z,100242.31
2023-03-20T18:24:31.291Z,100237.03
2023-03-20T18:26:03.250Z,100240.72
2023-03-20T18:27:35.584Z,100242.56
2023-03-20T18:29:07.396Z,100235.47
2023-03-20T18:30:41.492Z,100239.00
2023-03-20T18:32:13.217Z,100236.31
2023-03-20T18:33:49.605Z,100247.09
2023-03-20T18:35:21.425Z,100246.22
2023-03-20T18:36:53.131Z,100243.53
2023-03-20T18:38:25.825Z,100242.66
2023-03-20T18:39:57.943Z,100238.03
2023-03-20T18:41:29.676Z,100245.25
2023-03-20T18:43:03.119Z,100237.19
2023-03-20T18:44:35.305Z,100237.19
2023-03-20T18:46:11.708Z,100235.34
2023-03-20T18:47:43.597Z,100245.13